createdAt,value
2017-02-11T11:45:15.867Z,1015.23
2017-02-11T11:46:15.827Z,1015.29
2017-02-11T11:47:15.793Z,1015.25
2017-02-11T11:48:15.759Z,1015.23
2017-02-11T11:49:15.726Z,1015.27
2017-02-11T11:50:15.696Z,1015.26
2017-02-11T11:51:15.661Z,1015.25
2017-02-11T11:52:15.631Z,1015.25
2017-02-11T11:53:15.605Z,1015.27
2017-02-11T11:54:15.576Z,1015.29
2017-02-11T11:55:15.552Z,1015.27
2017-02-11T11:56:15.516Z,1015.21
2017-02-11T11:57:15.490Z,1015.29
2017-02-11T11:58:15.465Z,1015.24
2017-02-11T11:59:15.436Z,1015.23
2017-02-11T12:00:15.408Z,1015.28
2017-02-11T12:01:15.380Z,1015.18
2017-02-11T12:02:15.353Z,1015.23
2017-02-11T12:03:15.326Z,1015.18
2017-02-11T12:04:15.303Z,1015.15
2017-02-11T12:05:15.276Z,1015.14
2017-02-11T12:06:15.301Z,1015.18
2017-02-11T12:07:15.221Z,1015.15
2017-02-11T12:08:15.196Z,1015.08
2017-02-11T12:09:15.170Z,1015.14
2017-02-11T12:10:15.143Z,1015.14
2017-02-11T12:11:15.119Z,1015.2
2017-02-11T12:12:15.096Z,1015.15
2017-02-11T12:13:15.069Z,1015.15
2017-02-11T12:14:15.041Z,1015.1
2017-02-11T12:15:15.018Z,1015.13
2017-02-11T12:16:14.993Z,1015.09
2017-02-11T12:17:14.965Z,1015.13
2017-02-11T12:18:14.940Z,1015.17
2017-02-11T12:19:14.917Z,1015.13
2017-02-11T12:20:14.888Z,1015.12
2017-02-11T12:21:14.864Z,1015.18
2017-02-11T12:22:14.841Z,1015.18
2017-02-11T12:23:14.812Z,1015.19
2017-02-11T12:24:14.789Z,1015.15
2017-02-11T12:25:14.760Z,1015.17
2017-02-11T12:26:14.741Z,1015.18
2017-02-11T12:27:14.712Z,1015.21
2017-02-11T12:28:14.688Z,1015.3
2017-02-11T12:29:14.667Z,1015.24
2017-02-11T12:30:14.643Z,1015.22
2017-02-11T12:31:14.618Z,1015.22
2017-02-11T12:32:14.888Z,1015.22
2017-02-11T12:33:14.799Z,1015.24
2017-02-11T12:34:14.538Z,1015.21
2017-02-11T12:35:14.514Z,1015.22
2017-02-11T12:36:14.492Z,1015.25
2017-02-11T12:37:14.465Z,1015.27
2017-02-11T12:38:14.440Z,1015.28
2017-02-11T12:39:14.417Z,1015.3
2017-02-11T12:40:14.391Z,1015.26
2017-02-11T12:41:14.368Z,1015.29
2017-02-11T12:42:14.341Z,1015.26
2017-02-11T12:43:14.318Z,1015.29
2017-02-11T12:44:14.294Z,1015.25
2017-02-11T12:45:14.268Z,1015.25
2017-02-11T12:46:14.243Z,1015.2
2017-02-11T12:47:14.223Z,1015.2
2017-02-11T12:48:14.193Z,1015.17
2017-02-11T12:49:14.171Z,1015.15
2017-02-11T12:50:14.142Z,1015.11
2017-02-11T12:51:14.120Z,1015.11
2017-02-11T12:52:14.091Z,1015.11
2017-02-11T12:53:14.120Z,1015.09
2017-02-11T12:54:14.043Z,1015.05
2017-02-11T12:55:14.080Z,1015.05
2017-02-11T12:56:13.992Z,1015.06
2017-02-11T12:57:13.969Z,1015.06
2017-02-11T12:58:13.945Z,1015.06
2017-02-11T12:59:13.973Z,1015.07
2017-02-11T13:00:13.897Z,1015.1
2017-02-11T13:01:13.871Z,1015.03
2017-02-11T13:02:13.846Z,1015.03
2017-02-11T13:03:13.820Z,1015.03
2017-02-11T13:04:13.797Z,1014.97
2017-02-11T13:05:13.773Z,1014.95
2017-02-11T13:06:13.749Z,1014.92
2017-02-11T13:07:13.728Z,1014.9
2017-02-11T13:08:13.702Z,1014.86
2017-02-11T13:09:13.671Z,1014.83
2017-02-11T13:10:13.651Z,1014.74
2017-02-11T13:11:13.625Z,1014.76
2017-02-11T13:12:13.601Z,1014.76
2017-02-11T13:13:13.574Z,1014.74
2017-02-11T13:14:13.549Z,1014.72
2017-02-11T13:15:13.525Z,1014.7
2017-02-11T13:16:13.501Z,1014.7
2017-02-11T13:17:13.472Z,1014.69
2017-02-11T13:18:13.452Z,1014.67
2017-02-11T13:19:13.444Z,1014.62
2017-02-11T13:20:13.401Z,1014.67
2017-02-11T13:21:13.379Z,1014.65
2017-02-11T13:22:13.353Z,1014.69
2017-02-11T13:23:13.330Z,1014.64
2017-02-11T13:24:13.308Z,1014.63
2017-02-11T13:25:13.279Z,1014.56
2017-02-11T13:26:13.256Z,1014.61
2017-02-11T13:27:13.227Z,1014.55
2017-02-11T13:28:13.206Z,1014.48
2017-02-11T13:29:13.183Z,1014.55
2017-02-11T13:30:13.155Z,1014.6
2017-02-11T13:31:13.133Z,1014.52
2017-02-11T13:32:13.106Z,1014.58
2017-02-11T13:33:13.081Z,1014.43
2017-02-11T13:34:13.059Z,1014.47
2017-02-11T13:35:13.033Z,1014.43
2017-02-11T13:36:13.008Z,1014.48
2017-02-11T13:37:12.985Z,1014.48
2017-02-11T13:38:12.960Z,1014.44
2017-02-11T13:39:12.939Z,1014.48
2017-02-11T13:40:12.911Z,1014.46
2017-02-11T13:41:12.888Z,1014.41
2017-02-11T13:42:12.855Z,1014.4
2017-02-11T13:43:12.831Z,1014.44
2017-02-11T13:44:12.807Z,1014.44
2017-02-11T13:45:12.784Z,1014.47
2017-02-11T13:46:12.763Z,1014.42
2017-02-11T13:47:12.732Z,1014.41
2017-02-11T13:48:12.763Z,1014.43
2017-02-11T13:49:12.685Z,1014.51
2017-02-11T13:50:12.759Z,1014.63
2017-02-11T13:51:12.631Z,1014.46
2017-02-11T13:52:12.655Z,1014.41
2017-02-11T13:53:12.585Z,1014.45
2017-02-11T13:54:12.560Z,1014.46
2017-02-11T13:55:12.533Z,1014.45
2017-02-11T13:56:12.505Z,1014.42
2017-02-11T13:57:12.480Z,1014.49
2017-02-11T13:58:12.470Z,1014.47
2017-02-11T13:59:12.430Z,1014.43
2017-02-11T14:00:12.405Z,1014.48
2017-02-11T14:01:12.382Z,1014.38
2017-02-11T14:02:12.356Z,1014.35
2017-02-11T14:03:12.627Z,1014.34
2017-02-11T14:04:12.301Z,1014.33
2017-02-11T14:05:12.279Z,1014.3
2017-02-11T14:06:12.253Z,1014.27
2017-02-11T14:07:12.225Z,1014.28
2017-02-11T14:08:12.201Z,1014.22
2017-02-11T14:09:12.281Z,1014.21
2017-02-11T14:10:12.150Z,1014.23
2017-02-11T14:11:12.129Z,1014.27
2017-02-11T14:12:12.098Z,1014.3
2017-02-11T14:13:12.079Z,1014.38
2017-02-11T14:14:12.047Z,1014.37
2017-02-11T14:15:12.024Z,1014.43
2017-02-11T14:16:11.999Z,1014.39
2017-02-11T14:17:11.974Z,1014.44
2017-02-11T14:18:11.944Z,1014.5
2017-02-11T14:19:11.920Z,1014.47
2017-02-11T14:20:11.898Z,1014.53
2017-02-11T14:21:11.869Z,1014.47
2017-02-11T14:22:11.845Z,1014.47
2017-02-11T14:23:11.821Z,1014.46
2017-02-11T14:24:11.798Z,1014.49
2017-02-11T14:25:11.768Z,1014.47
2017-02-11T14:26:11.744Z,1014.48
2017-02-11T14:27:11.718Z,1014.54
2017-02-11T14:28:11.695Z,1014.48
2017-02-11T14:29:11.671Z,1014.47
2017-02-11T14:30:11.641Z,1014.49
2017-02-11T14:31:11.617Z,1014.48
2017-02-11T14:32:11.592Z,1014.64
2017-02-11T14:33:11.567Z,1014.55
2017-02-11T14:34:11.545Z,1014.56
2017-02-11T14:35:11.568Z,1014.58
2017-02-11T14:36:11.488Z,1014.58
2017-02-11T14:37:11.466Z,1014.6
2017-02-11T14:38:11.439Z,1014.65
2017-02-11T14:39:11.413Z,1014.63
2017-02-11T14:40:11.388Z,1014.63
2017-02-11T14:41:11.364Z,1014.65
2017-02-11T14:42:11.337Z,1014.62
2017-02-11T14:43:11.314Z,1014.73
2017-02-11T14:44:11.288Z,1014.64
2017-02-11T14:45:11.261Z,1014.65
2017-02-11T14:46:11.235Z,1014.64
2017-02-11T14:47:11.210Z,1014.77
2017-02-11T14:48:11.185Z,1014.69
2017-02-11T14:49:11.171Z,1014.69
2017-02-11T14:50:11.135Z,1014.72
2017-02-11T14:51:11.111Z,1014.7
2017-02-11T14:52:11.083Z,1014.77
2017-02-11T14:53:11.058Z,1014.7
2017-02-11T14:54:11.038Z,1014.73
2017-02-11T14:55:11.004Z,1014.76
2017-02-11T14:56:10.985Z,1014.74
2017-02-11T14:57:10.957Z,1014.78
2017-02-11T14:58:11.183Z,1014.79
2017-02-11T14:59:10.907Z,1014.79
2017-02-11T15:00:10.882Z,1014.8
2017-02-11T15:01:10.856Z,1014.8
2017-02-11T15:02:10.825Z,1014.85
2017-02-11T15:03:10.804Z,1014.87
2017-02-11T15:04:10.783Z,1014.81
2017-02-11T15:05:10.762Z,1014.81
2017-02-11T15:06:10.728Z,1014.83
2017-02-11T15:07:10.703Z,1014.83
2017-02-11T15:08:10.679Z,1014.78
2017-02-11T15:09:10.655Z,1014.81
2017-02-11T15:10:10.623Z,1014.84
2017-02-11T15:11:10.598Z,1014.86
2017-02-11T15:12:10.626Z,1014.85
2017-02-11T15:13:10.548Z,1014.89
2017-02-11T15:14:10.573Z,1014.89
2017-02-11T15:15:10.502Z,1014.91
2017-02-11T15:16:10.479Z,1014.9
2017-02-11T15:17:10.447Z,1014.9
2017-02-11T15:18:10.423Z,1014.89
2017-02-11T15:19:10.399Z,1014.93
2017-02-11T15:20:10.371Z,1014.88
2017-02-11T15:21:10.346Z,1014.9
2017-02-11T15:22:10.319Z,1014.89
2017-02-11T15:23:10.295Z,1014.86
2017-02-11T15:24:10.269Z,1014.85
2017-02-11T15:25:10.243Z,1014.88
2017-02-11T15:26:10.226Z,1014.83
2017-02-11T15:27:10.191Z,1014.87
2017-02-11T15:28:10.166Z,1014.89
2017-02-11T15:29:10.140Z,1014.88
2017-02-11T15:30:10.117Z,1014.93
2017-02-11T15:31:10.098Z,1015
2017-02-11T15:32:10.113Z,1014.97
2017-02-11T15:33:10.038Z,1014.95
2017-02-11T15:34:10.013Z,1014.97
2017-02-11T15:35:10.008Z,1015.01
2017-02-11T15:36:09.962Z,1015.04
2017-02-11T15:37:09.937Z,1015.02
2017-02-11T15:38:09.913Z,1014.98
2017-02-11T15:39:09.884Z,1015
2017-02-11T15:40:09.863Z,1015.01
2017-02-11T15:41:09.834Z,1014.95
2017-02-11T15:42:09.804Z,1014.96
2017-02-11T15:43:09.784Z,1014.91
2017-02-11T15:44:09.755Z,1014.9
2017-02-11T15:45:09.731Z,1014.89
2017-02-11T15:46:09.701Z,1014.87
2017-02-11T15:47:09.730Z,1014.83
2017-02-11T15:48:09.656Z,1014.8
2017-02-11T15:49:09.624Z,1014.82
2017-02-11T15:50:09.601Z,1014.82
2017-02-11T15:51:09.579Z,1014.78
2017-02-11T15:52:09.551Z,1014.77
2017-02-11T15:53:09.521Z,1014.72
2017-02-11T15:54:09.500Z,1014.75
2017-02-11T15:55:09.471Z,1014.69
2017-02-11T15:56:09.500Z,1014.72
2017-02-11T15:57:09.428Z,1014.61
2017-02-11T15:58:09.393Z,1014.62
2017-02-11T15:59:09.366Z,1014.64
2017-02-11T16:00:09.345Z,1014.53
2017-02-11T16:01:09.315Z,1014.61
2017-02-11T16:02:09.288Z,1014.51
2017-02-11T16:03:09.262Z,1014.62
2017-02-11T16:04:09.237Z,1014.55
2017-02-11T16:05:09.211Z,1014.56
2017-02-11T16:06:09.185Z,1014.55
2017-02-11T16:07:09.157Z,1014.54
2017-02-11T16:08:09.128Z,1014.59
2017-02-11T16:09:09.134Z,1014.6
2017-02-11T16:10:09.082Z,1014.55
2017-02-11T16:11:09.053Z,1014.55
2017-02-11T16:12:09.025Z,1014.5
2017-02-11T16:13:09.001Z,1014.47
2017-02-11T16:14:08.973Z,1014.49
2017-02-11T16:15:08.950Z,1014.49
2017-02-11T16:16:08.921Z,1014.61
2017-02-11T16:17:08.896Z,1014.51
2017-02-11T16:18:08.868Z,1014.46
2017-02-11T16:19:08.842Z,1014.52
2017-02-11T16:20:08.812Z,1014.53
2017-02-11T16:21:08.790Z,1014.54
2017-02-11T16:22:08.761Z,1014.57
2017-02-11T16:23:08.733Z,1014.56
2017-02-11T16:24:08.713Z,1014.54
2017-02-11T16:25:08.680Z,1014.65
2017-02-11T16:26:08.655Z,1014.58
2017-02-11T16:27:08.632Z,1014.68
2017-02-11T16:28:08.607Z,1014.63
2017-02-11T16:29:08.578Z,1014.74
2017-02-11T16:30:08.555Z,1014.68
2017-02-11T16:31:08.540Z,1014.73
2017-02-11T16:32:08.503Z,1014.64
2017-02-11T16:33:08.474Z,1014.68
2017-02-11T16:34:08.443Z,1014.68
2017-02-11T16:35:08.424Z,1014.66
2017-02-11T16:36:08.395Z,1014.64
2017-02-11T16:37:08.367Z,1014.64
2017-02-11T16:38:08.346Z,1014.61
2017-02-11T16:39:08.320Z,1014.61
2017-02-11T16:40:08.296Z,1014.66
2017-02-11T16:41:08.261Z,1014.63
2017-02-11T16:42:08.232Z,1014.73
2017-02-11T16:43:08.207Z,1014.61
2017-02-11T16:44:08.182Z,1014.73
2017-02-11T16:45:08.156Z,1014.73
2017-02-11T16:46:08.128Z,1014.69
2017-02-11T16:47:08.101Z,1014.72
2017-02-11T16:48:08.078Z,1014.72
2017-02-11T16:49:08.049Z,1014.8
2017-02-11T16:50:08.027Z,1014.85
2017-02-11T16:51:07.993Z,1014.86
2017-02-11T16:52:08.020Z,1014.93
2017-02-11T16:53:07.942Z,1014.9
2017-02-11T16:54:07.913Z,1014.96
2017-02-11T16:55:07.887Z,1015.01
2017-02-11T16:56:07.861Z,1015.05
2017-02-11T16:57:07.835Z,1015.03
2017-02-11T16:58:07.812Z,1015.1
2017-02-11T16:59:07.782Z,1015.13
2017-02-11T17:00:07.756Z,1015.16
2017-02-11T17:01:07.727Z,1015.14
2017-02-11T17:02:07.707Z,1015.19
2017-02-11T17:03:07.677Z,1015.2
2017-02-11T17:04:07.652Z,1015.16
2017-02-11T17:05:07.623Z,1015.17
2017-02-11T17:06:07.593Z,1015.14
2017-02-11T17:07:07.565Z,1015.14
2017-02-11T17:08:07.549Z,1015.1
2017-02-11T17:09:07.514Z,1015.15
2017-02-11T17:10:07.488Z,1015.16
2017-02-11T17:11:07.462Z,1015.18
2017-02-11T17:12:07.432Z,1015.17
2017-02-11T17:13:07.406Z,1015.17
2017-02-11T17:14:07.378Z,1015.14
2017-02-11T17:15:07.360Z,1015.13
2017-02-11T17:16:07.326Z,1015.14
2017-02-11T17:17:07.300Z,1015.12
2017-02-11T17:18:07.276Z,1015.16
2017-02-11T17:19:07.249Z,1015.17
2017-02-11T17:20:07.219Z,1015.22
2017-02-11T17:21:07.194Z,1015.16
2017-02-11T17:22:07.165Z,1015.22
2017-02-11T17:23:07.144Z,1015.21
2017-02-11T17:24:07.110Z,1015.23
2017-02-11T17:25:07.084Z,1015.23
2017-02-11T17:26:07.055Z,1015.22
2017-02-11T17:27:07.036Z,1015.18
2017-02-11T17:28:07.005Z,1015.14
2017-02-11T17:29:06.980Z,1015.17
2017-02-11T17:30:06.951Z,1015.19
2017-02-11T17:31:06.924Z,1015.22
2017-02-11T17:32:06.897Z,1015.23
2017-02-11T17:33:06.873Z,1015.28
2017-02-11T17:34:06.839Z,1015.3
2017-02-11T17:35:06.816Z,1015.25
2017-02-11T17:36:06.787Z,1015.31
2017-02-11T17:37:06.761Z,1015.33
2017-02-11T17:38:06.733Z,1015.3
2017-02-11T17:39:06.709Z,1015.28
2017-02-11T17:40:06.679Z,1015.38
2017-02-11T17:41:06.651Z,1015.31
2017-02-11T17:42:06.625Z,1015.3
2017-02-11T17:43:06.595Z,1015.29
2017-02-11T17:44:06.577Z,1015.26
2017-02-11T17:45:06.544Z,1015.31
2017-02-11T17:46:06.516Z,1015.28
2017-02-11T17:47:06.490Z,1015.31
2017-02-11T17:48:06.461Z,1015.22
2017-02-11T17:49:06.439Z,1015.25
2017-02-11T17:50:06.409Z,1015.29
2017-02-11T17:51:06.383Z,1015.2
2017-02-11T17:52:06.355Z,1015.17
2017-02-11T17:53:06.328Z,1015.2
2017-02-11T17:54:06.298Z,1015.21
2017-02-11T17:55:06.271Z,1015.33
2017-02-11T17:56:06.244Z,1015.31
2017-02-11T17:57:06.216Z,1015.24
2017-02-11T17:58:06.193Z,1015.29
2017-02-11T17:59:06.162Z,1015.26
2017-02-11T18:00:06.154Z,1015.33
2017-02-11T18:01:06.108Z,1015.3
2017-02-11T18:02:06.084Z,1015.28
2017-02-11T18:03:06.055Z,1015.34
2017-02-11T18:04:06.080Z,1015.39
2017-02-11T18:05:06.002Z,1015.39
2017-02-11T18:06:05.973Z,1015.47
2017-02-11T18:07:05.946Z,1015.5
2017-02-11T18:08:05.918Z,1015.48
2017-02-11T18:09:05.894Z,1015.49
2017-02-11T18:10:05.865Z,1015.49
2017-02-11T18:11:05.843Z,1015.48
2017-02-11T18:12:05.810Z,1015.43
2017-02-11T18:13:05.782Z,1015.39
2017-02-11T18:14:05.755Z,1015.44
2017-02-11T18:15:05.731Z,1015.32
2017-02-11T18:16:05.708Z,1015.39
2017-02-11T18:17:05.672Z,1015.34
2017-02-11T18:18:05.698Z,1015.42
2017-02-11T18:19:05.620Z,1015.39
2017-02-11T18:20:05.602Z,1015.35
2017-02-11T18:21:05.565Z,1015.42
2017-02-11T18:22:05.538Z,1015.41
2017-02-11T18:23:05.512Z,1015.52
2017-02-11T18:24:05.484Z,1015.53
2017-02-11T18:25:05.463Z,1015.5
2017-02-11T18:26:05.433Z,1015.5
2017-02-11T18:27:05.402Z,1015.57
2017-02-11T18:28:05.376Z,1015.6
2017-02-11T18:29:05.352Z,1015.53
2017-02-11T18:30:05.329Z,1015.63
2017-02-11T18:31:05.288Z,1015.6
2017-02-11T18:32:05.270Z,1015.52
2017-02-11T18:33:05.242Z,1015.59
2017-02-11T18:34:05.214Z,1015.62
2017-02-11T18:35:05.190Z,1015.58
2017-02-11T18:36:05.159Z,1015.6
2017-02-11T18:37:05.140Z,1015.64
2017-02-11T18:38:05.159Z,1015.62
2017-02-11T18:39:05.082Z,1015.61
2017-02-11T18:40:05.054Z,1015.62
2017-02-11T18:41:05.029Z,1015.57
2017-02-11T18:42:04.998Z,1015.6
2017-02-11T18:43:04.969Z,1015.59
2017-02-11T18:44:05.243Z,1015.57
2017-02-11T18:45:04.917Z,1015.56
2017-02-11T18:46:04.894Z,1015.61
2017-02-11T18:47:04.864Z,1015.6
2017-02-11T18:48:04.836Z,1015.62
2017-02-11T18:49:04.804Z,1015.59
2017-02-11T18:50:04.781Z,1015.6
2017-02-11T18:51:04.762Z,1015.63
2017-02-11T18:52:04.723Z,1015.6
2017-02-11T18:53:04.698Z,1015.62
2017-02-11T18:54:04.672Z,1015.68
2017-02-11T18:55:04.646Z,1015.6
2017-02-11T18:56:04.617Z,1015.66
2017-02-11T18:57:04.590Z,1015.66
2017-02-11T18:58:04.570Z,1015.67
2017-02-11T18:59:04.548Z,1015.69
2017-02-11T19:00:04.512Z,1015.69
2017-02-11T19:01:04.482Z,1015.63
2017-02-11T19:02:04.456Z,1015.68
2017-02-11T19:03:04.433Z,1015.72
2017-02-11T19:04:04.397Z,1015.68
2017-02-11T19:05:04.372Z,1015.68
2017-02-11T19:06:04.347Z,1015.67
2017-02-11T19:07:04.320Z,1015.67
2017-02-11T19:08:04.292Z,1015.74
2017-02-11T19:09:04.264Z,1015.67
2017-02-11T19:10:04.237Z,1015.67
2017-02-11T19:11:04.207Z,1015.69
2017-02-11T19:12:04.182Z,1015.69
2017-02-11T19:13:04.154Z,1015.69
2017-02-11T19:14:04.130Z,1015.68
2017-02-11T19:15:04.100Z,1015.71
2017-02-11T19:16:04.075Z,1015.72
2017-02-11T19:17:04.049Z,1015.75
2017-02-11T19:18:04.019Z,1015.74
2017-02-11T19:19:03.995Z,1015.74
2017-02-11T19:20:03.963Z,1015.76
2017-02-11T19:21:03.935Z,1015.82
2017-02-11T19:22:03.912Z,1015.79
2017-02-11T19:23:03.885Z,1015.82
2017-02-11T19:24:03.857Z,1015.78
2017-02-11T19:25:03.830Z,1015.79
2017-02-11T19:26:03.809Z,1015.74
2017-02-11T19:27:03.784Z,1015.77
2017-02-11T19:28:03.747Z,1015.75
2017-02-11T19:29:03.726Z,1015.73
2017-02-11T19:30:03.699Z,1015.76
2017-02-11T19:31:03.667Z,1015.74
2017-02-11T19:32:03.638Z,1015.77
2017-02-11T19:33:03.612Z,1015.83
2017-02-11T19:34:03.586Z,1015.87
2017-02-11T19:35:03.562Z,1015.87
2017-02-11T19:36:03.529Z,1015.84
2017-02-11T19:37:03.507Z,1015.8
2017-02-11T19:38:03.481Z,1015.78
2017-02-11T19:39:03.460Z,1015.85
2017-02-11T19:40:03.425Z,1015.76
2017-02-11T19:41:03.397Z,1015.88
2017-02-11T19:42:03.370Z,1015.79
2017-02-11T19:43:03.341Z,1015.86
2017-02-11T19:44:03.314Z,1015.85
2017-02-11T19:45:03.288Z,1015.82
2017-02-11T19:46:03.311Z,1015.89
2017-02-11T19:47:03.284Z,1015.86
2017-02-11T19:48:03.218Z,1015.76
2017-02-11T19:49:03.181Z,1015.78
2017-02-11T19:50:03.160Z,1015.85
2017-02-11T19:51:03.125Z,1015.89
2017-02-11T19:52:03.100Z,1015.82
2017-02-11T19:53:03.074Z,1015.82
2017-02-11T19:54:03.044Z,1015.86
2017-02-11T19:55:03.020Z,1015.86
2017-02-11T19:56:02.998Z,1015.81
2017-02-11T19:57:02.965Z,1015.94
2017-02-11T19:58:02.935Z,1015.86
2017-02-11T19:59:02.908Z,1015.82
2017-02-11T20:00:02.885Z,1015.84
2017-02-11T20:01:02.854Z,1015.79
2017-02-11T20:02:02.831Z,1015.88
2017-02-11T20:03:02.801Z,1015.87
2017-02-11T20:04:02.775Z,1015.89
2017-02-11T20:05:02.742Z,1015.92
2017-02-11T20:06:02.721Z,1015.88
2017-02-11T20:07:02.694Z,1015.92
2017-02-11T20:08:02.666Z,1015.88
2017-02-11T20:09:02.637Z,1015.96
2017-02-11T20:10:02.608Z,1015.86
2017-02-11T20:11:02.582Z,1015.88
2017-02-11T20:12:02.553Z,1015.88
2017-02-11T20:13:02.528Z,1015.9
2017-02-11T20:14:02.503Z,1015.84
2017-02-11T20:15:02.478Z,1015.92
2017-02-11T20:16:02.446Z,1015.9
2017-02-11T20:17:02.420Z,1015.92
2017-02-11T20:18:02.395Z,1015.95
2017-02-11T20:19:02.365Z,1015.92
2017-02-11T20:20:02.338Z,1015.91
2017-02-11T20:21:02.314Z,1015.93
2017-02-11T20:22:02.283Z,1015.98
2017-02-11T20:23:02.258Z,1015.93
2017-02-11T20:24:02.223Z,1015.89
2017-02-11T20:25:02.203Z,1015.86
2017-02-11T20:26:02.178Z,1015.9
2017-02-11T20:27:02.147Z,1015.91
2017-02-11T20:28:02.123Z,1015.92
2017-02-11T20:29:02.106Z,1015.93
2017-02-11T20:30:02.065Z,1015.88
2017-02-11T20:31:02.037Z,1015.97
2017-02-11T20:32:02.011Z,1016.06
2017-02-11T20:33:01.983Z,1015.99
2017-02-11T20:34:01.957Z,1016.04
2017-02-11T20:35:01.938Z,1016.02
2017-02-11T20:36:01.956Z,1015.93
2017-02-11T20:37:01.881Z,1015.96
2017-02-11T20:38:01.848Z,1015.92
2017-02-11T20:39:01.824Z,1015.92
2017-02-11T20:40:01.792Z,1015.92
2017-02-11T20:41:01.765Z,1015.89
2017-02-11T20:42:01.741Z,1015.9
2017-02-11T20:43:01.717Z,1015.91
2017-02-11T20:44:01.684Z,1015.82
2017-02-11T20:45:01.656Z,1015.88
2017-02-11T20:46:01.630Z,1015.92
2017-02-11T20:47:01.602Z,1015.88
2017-02-11T20:48:01.580Z,1015.92
2017-02-11T20:49:01.545Z,1015.91
2017-02-11T20:50:01.518Z,1015.96
2017-02-11T20:51:01.494Z,1015.96
2017-02-11T20:52:01.469Z,1015.89
2017-02-11T20:53:01.436Z,1015.92
2017-02-11T20:54:01.410Z,1015.88
2017-02-11T20:55:01.384Z,1015.89
2017-02-11T20:56:01.356Z,1015.97
2017-02-11T20:57:01.323Z,1015.92
2017-02-11T20:58:01.301Z,1015.91
2017-02-11T20:59:01.274Z,1015.98
2017-02-11T21:00:01.244Z,1015.88
2017-02-11T21:01:01.223Z,1016
2017-02-11T21:02:01.190Z,1016
2017-02-11T21:03:01.161Z,1016.07
2017-02-11T21:04:01.135Z,1016.05
2017-02-11T21:05:01.108Z,1016.14
2017-02-11T21:06:01.076Z,1016.19
2017-02-11T21:07:01.056Z,1016.18
2017-02-11T21:08:01.027Z,1016.25
2017-02-11T21:09:01.000Z,1016.29
2017-02-11T21:10:00.970Z,1016.28
2017-02-11T21:11:00.945Z,1016.23
2017-02-11T21:12:00.914Z,1016.25
2017-02-11T21:13:00.897Z,1016.17
2017-02-11T21:14:00.860Z,1016.19
2017-02-11T21:15:00.833Z,1016.14
2017-02-11T21:16:00.807Z,1016.11
2017-02-11T21:17:00.783Z,1016.01
2017-02-11T21:18:00.751Z,1015.93
2017-02-11T21:19:00.724Z,1015.87
2017-02-11T21:20:00.696Z,1015.74
2017-02-11T21:21:00.669Z,1015.7
2017-02-11T21:22:00.640Z,1015.57
2017-02-11T21:23:00.617Z,1015.48
2017-02-11T21:24:00.591Z,1015.38
2017-02-11T21:25:00.557Z,1015.37
2017-02-11T21:26:00.529Z,1015.41
2017-02-11T21:27:00.501Z,1015.52
2017-02-11T21:28:00.485Z,1015.5
2017-02-11T21:29:00.455Z,1015.67
2017-02-11T21:30:00.425Z,1015.54
2017-02-11T21:31:00.397Z,1015.59
2017-02-11T21:32:00.365Z,1015.6
2017-02-11T21:33:00.346Z,1015.62
2017-02-11T21:34:00.309Z,1015.6
2017-02-11T21:35:00.284Z,1015.6
2017-02-11T21:36:00.254Z,1015.63
2017-02-11T21:37:00.229Z,1015.83
2017-02-11T21:38:00.199Z,1015.71
2017-02-11T21:39:00.170Z,1015.81
2017-02-11T21:40:00.145Z,1015.78
2017-02-11T21:41:00.117Z,1015.68
2017-02-11T21:42:00.086Z,1015.8
2017-02-11T21:43:00.063Z,1015.78
2017-02-11T21:44:00.030Z,1015.71
2017-02-11T21:45:00.011Z,1015.85
2017-02-11T21:45:59.977Z,1015.85
2017-02-11T21:46:59.952Z,1015.94
2017-02-11T21:47:59.917Z,1015.88
2017-02-11T21:48:59.892Z,1015.9
2017-02-11T21:49:59.871Z,1016.05
2017-02-11T21:50:59.839Z,1016.11
2017-02-11T21:51:59.813Z,1016.1
2017-02-11T21:52:59.786Z,1016.14
2017-02-11T21:53:59.752Z,1016.08
2017-02-11T21:54:59.728Z,1016.16
2017-02-11T21:55:59.703Z,1016.16
2017-02-11T21:56:59.677Z,1016.09
2017-02-11T21:57:59.646Z,1016.16
2017-02-11T21:58:59.617Z,1016.19
2017-02-11T21:59:59.588Z,1016.17
2017-02-11T22:00:59.560Z,1016.12
2017-02-11T22:01:59.535Z,1016.09
2017-02-11T22:02:59.504Z,1016.06
2017-02-11T22:03:59.478Z,1016.02
2017-02-11T22:04:59.457Z,1016.03
2017-02-11T22:05:59.431Z,1016.12
2017-02-11T22:06:59.393Z,1016.12
2017-02-11T22:07:59.371Z,1016.09
2017-02-11T22:08:59.335Z,1016.17
2017-02-11T22:09:59.313Z,1016.08
2017-02-11T22:10:59.282Z,1016.1
2017-02-11T22:11:59.253Z,1016.08
2017-02-11T22:12:59.226Z,1016.13
2017-02-11T22:13:59.198Z,1016.07
2017-02-11T22:14:59.173Z,1016.11
2017-02-11T22:15:59.147Z,1016.08
2017-02-11T22:16:59.119Z,1016.16
2017-02-11T22:17:59.089Z,1016.16
2017-02-11T22:18:59.067Z,1016.05
2017-02-11T22:19:59.037Z,1016.02
2017-02-11T22:20:59.015Z,1015.97
2017-02-11T22:21:58.979Z,1016.04
2017-02-11T22:22:58.955Z,1015.92
2017-02-11T22:23:58.929Z,1015.94
2017-02-11T22:24:58.896Z,1016.01
2017-02-11T22:25:58.869Z,1016.01
2017-02-11T22:26:58.841Z,1016
2017-02-11T22:27:58.813Z,1016.03
2017-02-11T22:28:58.785Z,1016.13
2017-02-11T22:29:58.759Z,1016.21
2017-02-11T22:30:58.732Z,1016.14
2017-02-11T22:31:58.704Z,1016.19
2017-02-11T22:32:58.725Z,1016.28
2017-02-11T22:33:58.650Z,1016.1
2017-02-11T22:34:58.620Z,1016.27
2017-02-11T22:35:58.596Z,1016.11
2017-02-11T22:36:58.566Z,1016.18
2017-02-11T22:37:58.541Z,1016.15
2017-02-11T22:38:58.514Z,1016.13
2017-02-11T22:39:58.485Z,1016.2
2017-02-11T22:40:58.455Z,1016.22
2017-02-11T22:41:58.425Z,1016.25
2017-02-11T22:42:58.401Z,1016.21
2017-02-11T22:43:58.378Z,1016.29
2017-02-11T22:44:58.346Z,1016.18
2017-02-11T22:45:58.317Z,1016.18
2017-02-11T22:46:58.288Z,1016.21
2017-02-11T22:47:58.265Z,1016.16
2017-02-11T22:48:58.238Z,1016.21
2017-02-11T22:49:58.209Z,1016.22
2017-02-11T22:50:58.179Z,1016.25
2017-02-11T22:51:58.154Z,1016.29
2017-02-11T22:52:58.127Z,1016.25
2017-02-11T22:53:58.100Z,1016.22
2017-02-11T22:54:58.072Z,1016.19
2017-02-11T22:55:58.045Z,1016.18
2017-02-11T22:56:58.028Z,1016.19
2017-02-11T22:57:57.989Z,1016.16
2017-02-11T22:58:57.964Z,1016.18
2017-02-11T22:59:57.933Z,1016.24
2017-02-11T23:00:57.907Z,1016.09
2017-02-11T23:01:57.881Z,1016.11
2017-02-11T23:02:58.154Z,1016.11
2017-02-11T23:03:57.822Z,1016.23
2017-02-11T23:04:57.798Z,1016.1
2017-02-11T23:05:57.769Z,1016.15
2017-02-11T23:06:57.793Z,1016.03
2017-02-11T23:07:57.715Z,1016.18
2017-02-11T23:08:57.686Z,1016.08
2017-02-11T23:09:57.660Z,1016.08
2017-02-11T23:10:57.633Z,1016.01
2017-02-11T23:11:57.602Z,1016.08
2017-02-11T23:12:57.574Z,1015.94
2017-02-11T23:13:57.551Z,1016.04
2017-02-11T23:14:57.521Z,1016.04
2017-02-11T23:15:57.492Z,1016.04
2017-02-11T23:16:57.466Z,1016.06
2017-02-11T23:17:57.437Z,1016.05
2017-02-11T23:18:57.409Z,1016.06
2017-02-11T23:19:57.381Z,1016.13
2017-02-11T23:20:57.354Z,1016.11
2017-02-11T23:21:57.328Z,1016.11
2017-02-11T23:22:57.300Z,1016.17
2017-02-11T23:23:57.268Z,1016.19
2017-02-11T23:24:57.243Z,1016.18
2017-02-11T23:25:57.216Z,1016.18
2017-02-11T23:26:57.189Z,1016.27
2017-02-11T23:27:57.158Z,1016.26
2017-02-11T23:28:57.136Z,1016.2
2017-02-11T23:29:57.112Z,1016.19
2017-02-11T23:30:57.074Z,1016.24
2017-02-11T23:31:57.091Z,1016.29
2017-02-11T23:32:57.020Z,1016.39
2017-02-11T23:33:56.995Z,1016.31
2017-02-11T23:34:56.967Z,1016.31
2017-02-11T23:35:56.941Z,1016.38
2017-02-11T23:36:56.913Z,1016.28
2017-02-11T23:37:56.884Z,1016.22
2017-02-11T23:38:56.855Z,1016.21
2017-02-11T23:39:56.837Z,1016.2
2017-02-11T23:40:56.803Z,1016.22
2017-02-11T23:41:56.775Z,1016.21
2017-02-11T23:42:56.746Z,1016.26
2017-02-11T23:43:56.718Z,1016.17
2017-02-11T23:44:56.691Z,1016.21
2017-02-11T23:45:56.665Z,1016.25
2017-02-11T23:46:56.634Z,1016.25
2017-02-11T23:47:56.608Z,1016.31
2017-02-11T23:48:56.578Z,1016.27
2017-02-11T23:49:56.552Z,1016.4
2017-02-11T23:50:56.524Z,1016.29
2017-02-11T23:51:56.494Z,1016.35
2017-02-11T23:52:56.467Z,1016.39